createdAt,value
2023-03-30T00:00:51.612Z,98315.53
2023-03-30T00:03:22.778Z,98320.31
2023-03-30T00:05:58.667Z,98308.59
2023-03-30T00:08:29.730Z,98337.53
2023-03-30T00:11:18.180Z,98336.22
2023-03-30T00:13:45.320Z,98348.06
2023-03-30T00:16:14.212Z,98344.47
2023-03-30T00:18:41.412Z,98318.91
2023-03-30T00:21:11.060Z,98330.75
2023-03-30T00:23:39.227Z,98335.56
2023-03-30T00:26:07.394Z,98340.84
2023-03-30T00:28:34.757Z,98342.75
2023-03-30T00:31:01.421Z,98335.19
2023-03-30T00:33:44.132Z,98340.19
2023-03-30T00:36:12.813Z,98293.47
2023-03-30T00:38:40.236Z,98313.97
2023-03-30T00:41:07.294Z,98311.09
2023-03-30T00:43:33.937Z,98306.97
2023-03-30T00:46:00.535Z,98300.69
2023-03-30T00:48:34.785Z,98285.44
2023-03-30T00:51:10.429Z,98293.81
2023-03-30T00:53:39.812Z,98279.06
2023-03-30T00:56:08.698Z,98263.34
2023-03-30T00:58:37.238Z,98269.84
2023-03-30T01:01:07.706Z,98262.19
2023-03-30T01:03:40.013Z,98263.00
2023-03-30T01:06:10.929Z,98255.16
2023-03-30T01:08:39.237Z,98272.91
2023-03-30T01:11:07.581Z,98249.53
2023-03-30T01:13:46.727Z,98250.25
2023-03-30T01:16:32.678Z,98247.59
2023-03-30T01:19:12.262Z,98259.22
2023-03-30T01:22:20.730Z,98251.22
2023-03-30T01:25:25.148Z,98265.13
2023-03-30T01:28:29.987Z,98254.75
2023-03-30T01:31:22.167Z,98261.94
2023-03-30T01:34:09.341Z,98241.69
2023-03-30T01:37:02.868Z,98251.31
2023-03-30T01:39:34.005Z,98239.72
2023-03-30T01:42:22.318Z,98225.50
2023-03-30T01:45:16.084Z,98239.75
2023-03-30T01:47:46.319Z,98232.81
2023-03-30T01:50:24.474Z,98194.28
2023-03-30T01:52:58.949Z,98230.84
2023-03-30T01:55:30.338Z,98236.22
2023-03-30T01:58:07.965Z,98235.22
2023-03-30T02:00:38.252Z,98239.19
2023-03-30T02:03:11.668Z,98255.84
2023-03-30T02:05:39.439Z,98244.78
2023-03-30T02:08:11.648Z,98230.44
2023-03-30T02:10:39.445Z,98243.34
2023-03-30T02:13:07.575Z,98239.38
2023-03-30T02:15:44.746Z,98241.31
2023-03-30T02:18:15.131Z,98235.72
2023-03-30T02:20:42.848Z,98246.25
2023-03-30T02:23:11.503Z,98241.50
2023-03-30T02:25:40.943Z,98227.69
2023-03-30T02:28:08.447Z,98243.88
2023-03-30T02:30:41.430Z,98239.63
2023-03-30T02:33:29.737Z,98250.56
2023-03-30T02:36:38.168Z,98250.41
2023-03-30T02:39:18.300Z,98197.59
2023-03-30T02:42:00.596Z,98229.41
2023-03-30T02:44:48.665Z,98220.94
2023-03-30T02:47:36.922Z,98244.28
2023-03-30T02:50:13.855Z,98223.09
2023-03-30T02:53:12.237Z,98211.47
2023-03-30T02:56:03.836Z,98216.13
2023-03-30T02:58:39.474Z,98226.09
2023-03-30T03:01:31.499Z,98225.91
2023-03-30T03:04:00.132Z,98215.84
2023-03-30T03:06:28.341Z,98202.19
2023-03-30T03:08:56.627Z,98207.84
2023-03-30T03:11:23.599Z,98218.38
2023-03-30T03:13:50.561Z,98220.25
2023-03-30T03:16:17.540Z,98213.25
2023-03-30T03:18:44.653Z,98227.34
2023-03-30T03:21:13.839Z,98229.00
2023-03-30T03:23:41.295Z,98232.31
2023-03-30T03:26:07.865Z,98248.84
2023-03-30T03:28:35.818Z,98231.13
2023-03-30T03:31:02.647Z,98260.66
2023-03-30T03:33:33.878Z,98259.13
2023-03-30T03:36:01.600Z,98258.16
2023-03-30T03:38:28.777Z,98259.00
2023-03-30T03:40:58.302Z,98282.03
2023-03-30T03:43:25.146Z,98271.09
2023-03-30T03:45:52.985Z,98280.16
2023-03-30T03:48:22.106Z,98278.63
2023-03-30T03:50:54.135Z,98242.59
2023-03-30T03:53:21.590Z,98196.97
2023-03-30T03:55:48.135Z,98187.72
2023-03-30T03:58:16.087Z,98142.03
2023-03-30T04:00:42.876Z,98062.94
2023-03-30T04:03:09.911Z,98066.72
2023-03-30T04:05:36.413Z,98029.34
2023-03-30T04:08:03.010Z,98003.66
2023-03-30T04:10:29.945Z,97956.84
2023-03-30T04:12:58.196Z,97964.56
2023-03-30T04:15:25.413Z,97932.09
2023-03-30T04:17:57.835Z,97903.00
2023-03-30T04:20:30.501Z,97919.78
2023-03-30T04:22:57.247Z,97859.16
2023-03-30T04:25:29.129Z,97844.56
2023-03-30T04:27:57.103Z,97827.06
2023-03-30T04:30:25.158Z,97841.59
2023-03-30T04:33:02.993Z,97832.28
2023-03-30T04:35:34.200Z,97806.50
2023-03-30T04:38:02.678Z,97783.91
2023-03-30T04:40:30.168Z,97788.06
2023-03-30T04:43:02.536Z,97772.06
2023-03-30T04:45:30.770Z,97774.16
2023-03-30T04:47:57.368Z,97759.88
2023-03-30T04:50:23.986Z,97751.75
2023-03-30T04:52:50.774Z,97725.50
2023-03-30T04:55:17.250Z,97690.16
2023-03-30T04:57:43.713Z,97637.31
2023-03-30T05:00:10.697Z,97623.09
2023-03-30T05:02:37.592Z,97573.69
2023-03-30T05:05:04.334Z,97527.69
2023-03-30T05:07:30.884Z,97499.91
2023-03-30T05:09:57.400Z,97454.75
2023-03-30T05:12:23.881Z,97395.69
2023-03-30T05:14:50.486Z,97364.56
2023-03-30T05:17:17.016Z,97305.34
2023-03-30T05:19:43.482Z,97283.34
2023-03-30T05:22:11.540Z,97259.22
2023-03-30T05:24:38.090Z,97243.72
2023-03-30T05:27:05.166Z,97234.75
2023-03-30T05:29:31.945Z,97224.91
2023-03-30T05:31:58.616Z,97223.50
2023-03-30T05:34:25.090Z,97204.91
2023-03-30T05:36:52.899Z,97232.75
2023-03-30T05:39:20.014Z,97239.75
2023-03-30T05:41:46.530Z,97234.19
2023-03-30T05:44:13.198Z,97234.06
2023-03-30T05:46:39.787Z,97270.81
2023-03-30T05:49:06.471Z,97273.09
2023-03-30T05:51:32.903Z,97284.97
2023-03-30T05:53:59.444Z,97309.09
2023-03-30T05:56:27.288Z,97320.56
2023-03-30T05:58:53.779Z,97316.91
2023-03-30T06:01:21.327Z,97356.41
2023-03-30T06:03:52.198Z,97374.88
2023-03-30T06:06:18.735Z,97382.16
2023-03-30T06:08:45.270Z,97393.25
2023-03-30T06:11:12.667Z,97436.25
2023-03-30T06:13:39.088Z,97454.47
2023-03-30T06:16:06.097Z,97471.84
2023-03-30T06:18:32.591Z,97485.34
2023-03-30T06:21:02.390Z,97482.31
2023-03-30T06:23:29.487Z,97528.19
2023-03-30T06:25:55.993Z,97558.66
2023-03-30T06:28:25.461Z,97613.13
2023-03-30T06:30:56.277Z,97653.72
2023-03-30T06:33:23.264Z,97649.50
2023-03-30T06:35:52.051Z,97681.31
2023-03-30T06:38:20.448Z,97718.34
2023-03-30T06:40:47.327Z,97735.56
2023-03-30T06:43:19.518Z,97729.56
2023-03-30T06:46:00.282Z,97741.72
2023-03-30T06:48:26.853Z,97754.94
2023-03-30T06:50:55.289Z,97780.16
2023-03-30T06:53:24.024Z,97759.00
2023-03-30T06:55:53.054Z,97773.50
2023-03-30T06:58:19.552Z,97760.34
2023-03-30T07:00:46.561Z,97757.44
2023-03-30T07:03:13.039Z,97757.81
2023-03-30T07:05:40.404Z,97741.34
2023-03-30T07:08:07.522Z,97766.84
2023-03-30T07:10:34.109Z,97764.63
2023-03-30T07:13:06.137Z,97758.22
2023-03-30T07:15:32.722Z,97745.59
2023-03-30T07:18:00.390Z,97748.13
2023-03-30T07:20:27.537Z,97762.47
2023-03-30T07:22:54.222Z,97760.84
2023-03-30T07:25:20.650Z,97748.25
2023-03-30T07:27:47.756Z,97769.88
2023-03-30T07:30:21.837Z,97743.81
2023-03-30T07:32:51.015Z,97756.47
2023-03-30T07:35:18.435Z,97743.44
2023-03-30T07:37:45.085Z,97742.16
2023-03-30T07:40:13.244Z,97764.25
2023-03-30T07:42:41.113Z,97717.81
2023-03-30T07:45:08.236Z,97721.72
2023-03-30T07:47:34.705Z,97700.66
2023-03-30T07:50:01.332Z,97709.50
2023-03-30T07:52:28.031Z,97693.19
2023-03-30T07:54:57.167Z,97662.44
2023-03-30T07:57:24.086Z,97639.19
2023-03-30T07:59:50.807Z,97617.28
2023-03-30T08:02:18.226Z,97603.38
2023-03-30T08:04:44.864Z,97623.88
2023-03-30T08:07:17.153Z,97598.81
2023-03-30T08:09:45.852Z,97625.00
2023-03-30T08:12:12.430Z,97643.84
2023-03-30T08:14:38.955Z,97651.28
2023-03-30T08:17:05.594Z,97650.56
2023-03-30T08:19:32.111Z,97645.00
2023-03-30T08:21:59.320Z,97636.91
2023-03-30T08:24:25.746Z,97626.06
2023-03-30T08:26:52.235Z,97649.91
2023-03-30T08:29:18.923Z,97646.06
2023-03-30T08:31:45.771Z,97615.63
2023-03-30T08:34:20.017Z,97577.53
2023-03-30T08:36:46.735Z,97631.09
2023-03-30T08:39:15.519Z,97562.09
2023-03-30T08:41:44.805Z,97569.66
2023-03-30T08:44:25.923Z,97565.66
2023-03-30T08:46:54.646Z,97561.16
2023-03-30T08:49:27.002Z,97575.81
2023-03-30T08:51:56.415Z,97589.63
2023-03-30T08:54:25.809Z,97627.53
2023-03-30T08:57:01.430Z,97644.19
2023-03-30T08:59:40.412Z,97635.00
2023-03-30T09:02:23.374Z,97605.97
2023-03-30T09:05:19.376Z,97606.50
2023-03-30T09:07:56.155Z,97589.03
2023-03-30T09:10:30.401Z,97558.44
2023-03-30T09:13:02.400Z,97580.28
2023-03-30T09:15:33.340Z,97573.69
2023-03-30T09:18:18.804Z,97572.31
2023-03-30T09:20:47.933Z,97575.25
2023-03-30T09:23:17.622Z,97593.94
2023-03-30T09:25:53.503Z,97654.03
2023-03-30T09:28:53.578Z,97663.38
2023-03-30T09:31:33.991Z,97647.06
2023-03-30T09:34:08.791Z,97639.84
2023-03-30T09:36:56.017Z,97649.22
2023-03-30T09:39:27.279Z,97645.50
2023-03-30T09:41:59.460Z,97642.34
2023-03-30T09:44:37.252Z,97649.31
2023-03-30T09:47:26.525Z,97655.44
2023-03-30T09:50:12.296Z,97643.75
2023-03-30T09:52:40.626Z,97651.44
2023-03-30T09:55:22.172Z,97665.13
2023-03-30T09:57:51.038Z,97626.81
2023-03-30T10:00:29.410Z,97676.97
2023-03-30T10:03:01.391Z,97701.50
2023-03-30T10:05:28.980Z,97705.13
2023-03-30T10:07:58.688Z,97769.22
2023-03-30T10:10:40.216Z,97771.41
2023-03-30T10:13:16.400Z,97752.50
2023-03-30T10:15:46.424Z,97705.84
2023-03-30T10:18:28.355Z,97684.25
2023-03-30T10:21:06.318Z,97707.25
2023-03-30T10:23:43.267Z,97701.31
2023-03-30T10:26:19.041Z,97711.31
2023-03-30T10:28:57.595Z,97706.84
2023-03-30T10:31:28.169Z,97698.47
2023-03-30T10:34:00.662Z,97716.41
2023-03-30T10:36:35.531Z,97729.44
2023-03-30T10:39:12.188Z,97708.41
2023-03-30T10:41:41.366Z,97723.88
2023-03-30T10:44:17.703Z,97689.16
2023-03-30T10:46:45.995Z,97713.72
2023-03-30T10:49:39.894Z,97726.66
2023-03-30T10:52:14.740Z,97777.13
2023-03-30T10:54:47.184Z,97750.44
2023-03-30T10:57:18.755Z,97762.38
2023-03-30T11:00:00.539Z,97793.19
2023-03-30T11:02:33.235Z,97766.66
2023-03-30T11:05:09.497Z,97756.63
2023-03-30T11:07:41.860Z,97755.59
2023-03-30T11:10:32.025Z,97746.31
2023-03-30T11:13:03.106Z,97761.53
2023-03-30T11:15:41.829Z,97756.22
2023-03-30T11:18:22.031Z,97736.94
2023-03-30T11:21:00.432Z,97752.06
2023-03-30T11:23:33.707Z,97749.44
2023-03-30T11:26:04.243Z,97767.91
2023-03-30T11:28:43.636Z,97824.81
2023-03-30T11:31:23.126Z,97828.47
2023-03-30T11:34:07.644Z,97846.78
2023-03-30T11:36:56.935Z,97842.03
2023-03-30T11:39:32.606Z,97854.16
2023-03-30T11:42:22.475Z,97865.81
2023-03-30T11:44:49.028Z,97823.09
2023-03-30T11:47:27.617Z,97840.34
2023-03-30T11:50:07.861Z,97833.19
2023-03-30T11:53:03.463Z,97850.84
2023-03-30T11:55:56.689Z,97911.53
2023-03-30T11:58:36.949Z,97904.50
2023-03-30T12:01:34.288Z,97904.09
2023-03-30T12:04:09.796Z,97903.22
2023-03-30T12:06:41.247Z,97941.50
2023-03-30T12:09:23.443Z,97964.84
2023-03-30T12:12:15.660Z,98006.22
2023-03-30T12:14:45.923Z,98002.38
2023-03-30T12:17:15.855Z,98077.81
2023-03-30T12:19:57.529Z,98040.69
2023-03-30T12:23:01.861Z,98029.69
2023-03-30T12:25:54.291Z,98028.25
2023-03-30T12:30:57.617Z,98037.28
2023-03-30T12:33:46.228Z,98122.34
2023-03-30T12:36:34.350Z,97754.38
2023-03-30T12:39:02.361Z,97465.84
2023-03-30T12:41:40.550Z,97304.22
2023-03-30T12:44:41.278Z,97178.47
2023-03-30T12:47:31.183Z,97057.81
2023-03-30T12:50:13.393Z,97050.94
2023-03-30T12:52:53.180Z,97018.25
2023-03-30T12:55:31.730Z,96984.91
2023-03-30T12:58:41.884Z,96957.19
2023-03-30T13:01:27.393Z,96948.97
2023-03-30T13:04:24.060Z,96919.59
2023-03-30T13:07:02.071Z,96898.16
2023-03-30T13:09:33.152Z,96867.69
2023-03-30T13:11:59.578Z,96888.22
2023-03-30T13:14:28.865Z,96867.69
2023-03-30T13:16:55.352Z,96917.22
2023-03-30T13:19:26.516Z,96932.66
2023-03-30T13:22:16.212Z,96944.53
2023-03-30T13:24:42.761Z,96957.94
2023-03-30T13:27:18.381Z,96996.00
2023-03-30T13:29:57.056Z,96982.75
2023-03-30T13:32:54.421Z,97010.38
2023-03-30T13:35:38.938Z,97056.81
2023-03-30T13:38:36.124Z,97112.78
2023-03-30T13:41:34.569Z,97140.41
2023-03-30T13:44:20.350Z,97223.19
2023-03-30T13:47:00.396Z,97258.00
2023-03-30T13:49:44.818Z,97253.59
2023-03-30T13:52:16.371Z,97361.09
2023-03-30T13:54:43.717Z,97385.59
2023-03-30T13:57:25.311Z,97465.34
2023-03-30T14:00:00.449Z,97486.28
2023-03-30T14:02:30.983Z,97544.22
2023-03-30T14:05:34.684Z,97552.19
2023-03-30T14:08:01.858Z,97582.63
2023-03-30T14:10:28.514Z,97582.13
2023-03-30T14:12:57.138Z,97583.28
2023-03-30T14:15:37.786Z,97581.75
2023-03-30T14:18:05.480Z,97608.91
2023-03-30T14:20:52.398Z,97585.09
2023-03-30T14:23:26.795Z,97585.78
2023-03-30T14:25:58.172Z,97600.31
2023-03-30T14:28:27.940Z,97593.09
2023-03-30T14:31:03.244Z,97603.22
2023-03-30T14:33:30.262Z,97638.75
2023-03-30T14:35:58.923Z,97658.84
2023-03-30T14:38:40.148Z,97627.03
2023-03-30T14:41:29.031Z,97622.06
2023-03-30T14:44:03.935Z,97663.25
2023-03-30T14:46:52.679Z,97643.84
2023-03-30T14:49:30.211Z,97652.94
2023-03-30T14:52:18.257Z,97691.75
2023-03-30T14:54:58.134Z,97702.53
2023-03-30T14:57:34.842Z,97685.97
2023-03-30T15:00:34.138Z,97699.38
2023-03-30T15:03:02.485Z,97748.16
2023-03-30T15:05:34.067Z,97781.16
2023-03-30T15:08:03.136Z,97794.06
2023-03-30T15:10:43.425Z,97763.41
2023-03-30T15:13:18.874Z,97785.47
2023-03-30T15:15:45.268Z,97779.38
2023-03-30T15:18:19.051Z,97740.13
2023-03-30T15:20:45.567Z,97775.13
2023-03-30T15:23:13.353Z,97760.47
2023-03-30T15:25:40.146Z,97777.53
2023-03-30T15:28:15.545Z,97792.66
2023-03-30T15:30:44.197Z,97806.53
2023-03-30T15:33:32.184Z,97835.03
2023-03-30T15:36:06.372Z,97827.34
2023-03-30T15:38:36.422Z,97809.56
2023-03-30T15:41:09.098Z,97799.53
2023-03-30T15:43:36.613Z,97817.78
2023-03-30T15:46:12.853Z,97799.00
2023-03-30T15:48:45.328Z,97833.31
2023-03-30T15:51:16.424Z,97842.09
2023-03-30T15:54:01.630Z,97846.09
2023-03-30T15:56:39.352Z,97845.53
2023-03-30T15:59:18.578Z,97832.91
2023-03-30T16:01:53.211Z,97849.03
2023-03-30T16:04:24.599Z,97852.56
2023-03-30T16:06:52.507Z,97869.47
2023-03-30T16:09:18.965Z,97860.84
2023-03-30T16:11:46.330Z,97869.59
2023-03-30T16:14:15.351Z,97861.03
2023-03-30T16:16:41.982Z,97842.09
2023-03-30T16:19:12.842Z,97811.16
2023-03-30T16:21:39.726Z,97806.59
2023-03-30T16:24:06.840Z,97823.56
2023-03-30T16:26:39.939Z,97830.66
2023-03-30T16:29:18.225Z,97825.97
2023-03-30T16:31:44.819Z,97843.84
2023-03-30T16:34:11.408Z,97838.13
2023-03-30T16:36:37.928Z,97835.06
2023-03-30T16:39:26.462Z,97834.31
2023-03-30T16:41:54.267Z,97839.13
2023-03-30T16:44:22.650Z,97827.78
2023-03-30T16:46:50.407Z,97774.41
2023-03-30T16:49:23.186Z,97829.44
2023-03-30T16:51:51.118Z,97803.53
2023-03-30T16:54:31.204Z,97783.19
2023-03-30T16:56:59.523Z,97811.59
2023-03-30T16:59:29.231Z,97801.38
2023-03-30T17:01:59.090Z,97790.63
2023-03-30T17:04:25.928Z,97728.19
2023-03-30T17:06:54.719Z,97743.16
2023-03-30T17:09:22.360Z,97740.25
2023-03-30T17:11:54.061Z,97739.69
2023-03-30T17:14:23.919Z,97703.75
2023-03-30T17:16:50.467Z,97730.75
2023-03-30T17:19:17.213Z,97700.69
2023-03-30T17:21:44.134Z,97680.28
2023-03-30T17:24:13.753Z,97654.63
2023-03-30T17:26:40.629Z,97624.91
2023-03-30T17:29:07.021Z,97594.34
2023-03-30T17:31:33.797Z,97617.53
2023-03-30T17:34:00.596Z,97622.69
2023-03-30T17:36:28.649Z,97657.34
2023-03-30T17:38:58.187Z,97620.78
2023-03-30T17:41:24.623Z,97628.75
2023-03-30T17:43:51.637Z,97622.50
2023-03-30T17:46:19.480Z,97641.63
2023-03-30T17:48:46.547Z,97653.25
2023-03-30T17:51:12.999Z,97635.13
2023-03-30T17:53:40.655Z,97643.09
2023-03-30T17:56:07.427Z,97639.53
2023-03-30T17:58:35.445Z,97651.50
2023-03-30T18:01:05.520Z,97663.47
2023-03-30T18:03:32.667Z,97648.66
2023-03-30T18:06:04.393Z,97647.38
2023-03-30T18:08:34.623Z,97651.38
2023-03-30T18:11:01.760Z,97687.78
2023-03-30T18:13:30.576Z,97683.47
2023-03-30T18:15:58.721Z,97688.47
2023-03-30T18:18:28.152Z,97699.63
2023-03-30T18:21:06.805Z,97702.75
2023-03-30T18:23:34.726Z,97722.66
2023-03-30T18:26:02.372Z,97697.91
2023-03-30T18:28:31.480Z,97714.06
2023-03-30T18:31:00.762Z,97726.31
2023-03-30T18:33:28.118Z,97731.63
2023-03-30T18:36:08.165Z,97734.78
2023-03-30T18:38:35.137Z,97746.22
2023-03-30T18:41:01.726Z,97736.66
2023-03-30T18:43:28.602Z,97739.38
2023-03-30T18:46:00.777Z,97713.69
2023-03-30T18:48:29.196Z,97679.97
2023-03-30T18:51:02.879Z,97658.50
2023-03-30T18:53:29.835Z,97654.16
2023-03-30T18:56:01.577Z,97605.41
2023-03-30T18:58:31.049Z,97628.03
2023-03-30T19:00:57.828Z,97602.97
2023-03-30T19:03:33.119Z,97610.03
2023-03-30T19:06:11.989Z,97582.81
2023-03-30T19:08:43.553Z,97543.47
2023-03-30T19:11:11.224Z,97550.38
2023-03-30T19:13:37.624Z,97512.75
2023-03-30T19:16:06.122Z,97505.09
2023-03-30T19:18:32.758Z,97502.81
2023-03-30T19:21:06.913Z,97481.56
2023-03-30T19:23:33.923Z,97443.13
2023-03-30T19:26:02.995Z,97416.84
2023-03-30T19:28:29.564Z,97386.38
2023-03-30T19:30:56.084Z,97354.16
2023-03-30T19:33:22.558Z,97317.03
2023-03-30T19:35:49.057Z,97288.47
2023-03-30T19:38:15.914Z,97281.56
2023-03-30T19:40:43.174Z,97253.53
2023-03-30T19:43:10.165Z,97246.63
2023-03-30T19:45:36.830Z,97229.66
2023-03-30T19:48:03.863Z,97252.72
2023-03-30T19:50:30.873Z,97258.75
2023-03-30T19:52:58.389Z,97262.31
2023-03-30T19:55:27.119Z,97236.50
2023-03-30T19:57:53.634Z,97189.13
2023-03-30T20:00:20.311Z,97136.25
2023-03-30T20:02:52.756Z,97092.72
2023-03-30T20:05:21.281Z,97104.47
2023-03-30T20:07:48.370Z,97075.97
2023-03-30T20:10:20.585Z,97076.84
2023-03-30T20:12:51.554Z,97044.44
2023-03-30T20:15:20.222Z,96990.28
2023-03-30T20:17:47.443Z,96942.53
2023-03-30T20:20:17.114Z,96920.34
2023-03-30T20:22:44.579Z,96901.22
2023-03-30T20:25:14.053Z,96856.44
2023-03-30T20:27:41.086Z,96865.09
2023-03-30T20:30:08.616Z,96850.66
2023-03-30T20:32:35.385Z,96832.56
2023-03-30T20:35:02.169Z,96843.78
2023-03-30T20:37:28.929Z,96847.84
2023-03-30T20:40:03.570Z,96855.78
2023-03-30T20:42:31.624Z,96858.41
2023-03-30T20:44:59.585Z,96872.22
2023-03-30T20:47:30.478Z,96852.81
2023-03-30T20:49:58.307Z,96886.44
2023-03-30T20:52:25.292Z,96890.66
2023-03-30T20:54:52.558Z,96891.41
2023-03-30T20:57:21.825Z,96890.78
2023-03-30T20:59:48.969Z,96894.75
2023-03-30T21:02:16.804Z,96913.06
2023-03-30T21:04:43.648Z,96939.50
2023-03-30T21:07:10.948Z,96961.91
2023-03-30T21:09:38.031Z,96984.00
2023-03-30T21:12:04.663Z,97011.31
2023-03-30T21:14:31.199Z,97041.72
2023-03-30T21:16:57.681Z,97067.66
2023-03-30T21:19:24.113Z,97110.31
2023-03-30T21:21:50.687Z,97138.47
2023-03-30T21:24:26.796Z,97174.88
2023-03-30T21:26:53.266Z,97187.25
2023-03-30T21:29:19.907Z,97222.00
2023-03-30T21:31:46.622Z,97225.38
2023-03-30T21:34:13.577Z,97254.22
2023-03-30T21:36:40.193Z,97235.41
2023-03-30T21:39:07.030Z,97262.03
2023-03-30T21:41:33.482Z,97279.91
2023-03-30T21:43:59.901Z,97247.56
2023-03-30T21:46:26.666Z,97285.19
2023-03-30T21:48:54.665Z,97303.38
2023-03-30T21:51:30.206Z,97293.03
2023-03-30T21:53:58.010Z,97321.50
2023-03-30T21:56:28.811Z,97318.47
2023-03-30T21:58:55.717Z,97312.75
2023-03-30T22:01:24.335Z,97316.41
2023-03-30T22:03:51.852Z,97343.31
2023-03-30T22:06:19.220Z,97351.94
2023-03-30T22:08:45.989Z,97335.00
2023-03-30T22:11:15.954Z,97346.66
2023-03-30T22:13:42.898Z,97347.59
2023-03-30T22:16:24.370Z,97365.50
2023-03-30T22:18:51.811Z,97375.03
2023-03-30T22:21:21.996Z,97386.72
2023-03-30T22:23:48.435Z,97361.47
2023-03-30T22:26:15.518Z,97376.00
2023-03-30T22:28:42.443Z,97354.53
2023-03-30T22:31:11.650Z,97379.81
2023-03-30T22:33:39.368Z,97371.69
2023-03-30T22:36:14.947Z,97357.34
2023-03-30T22:38:42.521Z,97336.94
2023-03-30T22:41:10.285Z,97349.63
2023-03-30T22:43:37.255Z,97343.56
2023-03-30T22:46:05.762Z,97348.88
2023-03-30T22:48:40.689Z,97338.09
2023-03-30T22:51:08.404Z,97339.94
2023-03-30T22:53:35.783Z,97326.53
2023-03-30T22:56:02.473Z,97341.31
2023-03-30T22:58:29.126Z,97332.16
2023-03-30T23:01:06.038Z,97309.28
2023-03-30T23:03:32.687Z,97301.34
2023-03-30T23:06:02.041Z,97283.31
2023-03-30T23:08:30.094Z,97304.44
2023-03-30T23:11:04.074Z,97305.91
2023-03-30T23:13:31.621Z,97285.19
2023-03-30T23:15:58.573Z,97288.03
2023-03-30T23:18:25.280Z,97258.31
2023-03-30T23:20:55.642Z,97247.91
2023-03-30T23:23:22.669Z,97243.25
2023-03-30T23:25:50.536Z,97226.00
2023-03-30T23:28:17.351Z,97224.81
2023-03-30T23:30:48.081Z,97228.34
2023-03-30T23:33:14.546Z,97225.00
2023-03-30T23:35:48.743Z,97208.75
2023-03-30T23:38:15.660Z,97205.78
2023-03-30T23:40:42.127Z,97217.25
2023-03-30T23:43:08.745Z,97197.75
2023-03-30T23:45:35.172Z,97210.78
2023-03-30T23:48:01.704Z,97193.19
2023-03-30T23:50:29.005Z,97192.50
2023-03-30T23:52:55.807Z,97192.19
2023-03-30T23:55:22.201Z,97186.34
2023-03-30T23:57:50.716Z,97199.81
